Aviation Digital Data Service (ADDS)

Output produced by METARs form (0429 UTC 26 May 2018)
found at http://www.aviationweather.gov/adds/metars/
 
TAF TFFR 252200Z 2600/2624 VRB05KT 9999 SCT025 
     TEMPO 2602/2624 4000 SHRA BKN018TCU 
     BECMG 2610/2612 10015KT 
     PROB30 
     TEMPO 2612/2624 10015G25KT 1000 TSRA SCT005 BKN015CB